Latest Coastal Weather Observations for Cape Nelson

IDV60701

Issued at 10:21 am EDT Tuesday 9 February 2016 (issued every 10 minutes, with the page automatically refreshed every 10 minutes)

About coastal observations | Map of coastal stations | Coastal observations for VIC | Marine services | Other Formats
Station Details ID: 090184 Name: CAPE NELSON LIGHTHOUSE Lat: -38.43 Lon: 141.54 Height: 45.4 m
Data from the previous 72 hours. | See also: Recent months at Cape Nelson
Date/Time
EDT
Temp

°C
Wind Pressure Rain
since 9am
mm
Weather Cloud Vis
km
Sea
Height
m
Swell
Dir
 
Speed
knots
Gust
knots
hPa Trend Height
m
Period
s
Dir
09/10:00am 18.4 ESE 11 16 1022.4 - 0.0 - - - - - - -
09/09:30am 18.4 E 13 17 1022.5 - 0.0 - - - - - - -
09/09:00am 17.6 E 11 15 1022.5 - 0.0 - - - - - - -
09/08:30am 17.3 E 9 12 1022.5 - 0.0 - - - - - - -
09/08:00am 17.0 E 9 14 1022.4 - 0.0 - - - - - - -
09/07:30am 16.8 SE 9 12 1022.3 - 0.0 - - - - - - -
09/07:00am 16.7 ESE 8 14 1022.4 - 0.0 - - - - - - -
09/06:30am 16.8 SE 10 13 1022.1 - 0.0 - - - - - - -
09/06:00am 16.5 ESE 7 12 1021.9 - 0.0 - - - - - - -
09/05:30am 16.7 SE 10 13 1021.8 - 0.0 - - - - - - -
09/05:00am 16.7 ESE 8 13 1021.8 - 0.0 - - - - - - -
09/04:30am 16.7 ESE 10 15 1021.9 - 0.0 - - - - - - -
09/04:00am 16.9 SE 9 14 1022.0 - 0.0 - - - - - - -
09/03:30am 16.8 ESE 9 15 1022.1 - 0.0 - - - - - - -
09/03:00am 16.6 SE 9 15 1022.3 - 0.0 - - - - - - -
09/02:30am 16.7 SE 12 18 1022.7 - 0.0 - - - - - - -
09/02:00am 16.7 SE 11 18 1022.9 - 0.0 - - - - - - -
09/01:30am 17.0 SE 12 17 1023.2 - 0.0 - - - - - - -
09/01:00am 16.8 SE 10 14 1023.4 - 0.0 - - - - - - -
09/12:30am 16.9 SE 12 17 1023.7 - 0.0 - - - - - - -
09/12:00am 16.9 SE 11 16 1023.9 - 0.0 - - - - - - -
 
Date/Time
EDT
Temp

°C
Wind Pressure Rain
since 9am
mm
Weather Cloud Vis
km
Sea
Height
m
Swell
Dir
 
Speed
knots
Gust
knots
hPa Trend Height
m
Period
s
Dir
08/11:30pm 17.1 SE 13 18 1024.2 - 0.0 - - - - - - -
08/11:00pm 17.4 SE 13 19 1024.3 - 0.0 - - - - - - -
08/10:30pm 17.3 SSE 13 17 1024.4 - 0.0 - - - - - - -
08/10:00pm 17.4 SSE 14 17 1024.4 - 0.0 - - - - - - -
08/09:30pm 17.4 SSE 14 18 1024.2 - 0.0 - - - - - - -
08/09:00pm 17.5 SSE 14 18 1024.0 - 0.0 - - - - - - -
08/08:30pm 17.8 SSE 12 16 1023.9 - 0.0 - - - - - - -
08/08:00pm 18.2 S 15 19 1023.6 - 0.0 - - - - - - -
08/07:30pm 18.8 S 14 18 1023.4 - 0.0 - - - - - - -
08/07:00pm 19.0 S 13 16 1023.2 - 0.0 - - - - - - -
08/06:30pm 19.1 S 13 16 1023.1 - 0.0 - - - - - - -
08/06:00pm 19.2 S 13 15 1023.1 - 0.0 - - - - - - -
08/05:30pm 20.8 S 10 13 1023.2 - 0.0 - - - - - - -
08/05:00pm 20.9 S 10 13 1023.4 - 0.0 - - - - - - -
08/04:30pm 20.8 S 9 12 1023.6 - 0.0 - - - - - - -
08/04:00pm 21.1 S 9 12 1023.7 - 0.0 - - - - - - -
08/03:30pm 21.3 S 9 12 1023.7 - 0.0 - - - - - - -
08/03:00pm 21.6 S 7 10 1023.8 - 0.0 - - - - - - -
08/02:30pm 21.2 S 8 11 1023.9 - 0.0 - - - - - - -
08/02:00pm 21.4 SSE 8 11 1024.1 - 0.0 - - - - - - -
08/01:30pm 21.6 SSE 7 9 1024.0 - 0.0 - - - - - - -
08/01:00pm 21.6 SSE 7 10 1024.3 - 0.0 - - - - - - -
08/12:30pm 21.2 SSE 8 11 1024.5 - 0.0 - - - - - - -
08/12:00pm 20.1 SSE 7 10 1024.6 - 0.0 - - - - - - -
08/11:30am 20.3 SE 8 11 1024.5 - 0.0 - - - - - - -
08/11:00am 19.3 SSE 10 13 1024.4 - 0.0 - - - - - - -
08/10:30am 18.7 SSE 9 13 1024.4 - 0.0 - - - - - - -
08/10:00am 19.3 SSE 10 12 1024.2 - 0.0 - - - - - - -
08/09:30am 17.7 SSE 11 14 1024.1 - 0.0 - - - - - - -
08/09:00am 18.1 SSE 9 12 1023.9 - 0.0 - - - - - - -
08/08:30am 18.3 SSE 8 10 1023.5 - 0.0 - - - - - - -
08/08:00am 16.8 SSE 9 13 1023.2 - 0.0 - - - - - - -
08/07:30am 16.7 SSE 9 13 1022.9 - 0.0 - - - - - - -
08/07:00am 16.6 SSE 7 10 1022.5 - 0.0 - - - - - - -
08/06:30am 16.5 S 10 13 1022.2 - 0.0 - - - - - - -
08/06:00am 16.4 SE 10 14 1021.9 - 0.0 - - - - - - -
08/05:30am 16.4 SSE 10 15 1021.8 - 0.0 - - - - - - -
08/05:00am 16.7 SSE 8 13 1021.6 - 0.0 - - - - - - -
08/04:30am 16.5 S 10 15 1021.5 - 0.0 - - - - - - -
08/04:00am 16.4 SSE 10 15 1021.4 - 0.0 - - - - - - -
08/03:30am 16.7 S 10 14 1021.5 - 0.0 - - - - - - -
08/03:00am 16.8 SSE 8 11 1021.5 - 0.0 - - - - - - -
08/02:30am 16.7 SSE 8 12 1021.6 - 0.0 - - - - - - -
08/02:00am 16.8 SSE 9 13 1021.7 - 0.0 - - - - - - -
08/01:30am 17.0 SSE 11 15 1021.8 - 0.0 - - - - - - -
08/01:00am 17.0 S 11 16 1021.9 - 0.0 - - - - - - -
08/12:30am 17.3 SSE 11 14 1021.8 - 0.0 - - - - - - -
08/12:00am 17.3 S 13 18 1021.7 - 0.0 - - - - - - -
 
Date/Time
EDT
Temp

°C
Wind Pressure Rain
since 9am
mm
Weather Cloud Vis
km
Sea
Height
m
Swell
Dir
 
Speed
knots
Gust
knots
hPa Trend Height
m
Period
s
Dir
07/11:30pm 17.2 S 13 17 1021.8 - 0.0 - - - - - - -
07/11:00pm 17.5 S 13 17 1021.7 - 0.0 - - - - - - -
07/10:30pm 17.4 SSE 13 16 1021.6 - 0.0 - - - - - - -
07/10:00pm 17.3 S 14 19 1021.3 - 0.0 - - - - - - -
07/09:30pm 17.5 S 15 19 1020.9 - 0.0 - - - - - - -
07/09:00pm 17.6 S 13 18 1020.6 - 0.0 - - - - - - -
07/08:30pm 18.0 SSE 12 15 1020.4 - 0.0 - - - - - - -
07/08:00pm 18.3 S 13 16 1020.0 - 0.0 - - - - - - -
07/07:30pm 19.0 S 13 16 1019.6 - 0.0 - - - - - - -
07/07:00pm 19.0 S 11 14 1019.2 - 0.0 - - - - - - -
07/06:30pm 19.3 SSE 11 15 1019.0 - 0.0 - - - - - - -
07/06:00pm 20.4 SSE 10 13 1018.8 - 0.0 - - - - - - -
07/05:30pm 20.2 S 11 14 1018.8 - 0.0 - - - - - - -
07/05:00pm 20.6 S 11 15 1018.8 - 0.0 - - - - - - -
07/04:30pm 20.9 S 10 15 1018.9 - 0.0 - - - - - - -
07/04:00pm 21.2 S 10 13 1018.8 - 0.0 - - - - - - -
07/03:30pm 21.3 S 10 13 1018.9 - 0.0 - - - - - - -
07/03:00pm 21.6 S 9 12 1018.9 - 0.0 - - - - - - -
07/02:30pm 21.1 S 10 12 1018.9 - 0.0 - - - - - - -
07/02:00pm 21.6 S 9 11 1018.8 - 0.0 - - - - - - -
07/01:30pm 20.9 SSW 9 11 1018.9 - 0.0 - - - - - - -
07/01:00pm 21.1 SSW 10 12 1019.0 - 0.0 - - - - - - -
07/12:30pm 21.5 S 8 12 1018.9 - 0.0 - - - - - - -
07/12:00pm 21.7 S 7 9 1018.6 - 0.0 - - - - - - -
07/11:30am 21.2 S 7 9 1018.8 - 0.0 - - - - - - -
07/11:00am 20.7 SSW 9 11 1018.9 - 0.0 - - - - - - -
07/10:30am 20.5 S 7 11 1018.7 - 0.0 - - - - - - -
07/10:00am 20.2 S 7 9 1018.5 - 0.0 - - - - - - -
07/09:30am 19.3 SSW 9 11 1018.5 - 0.0 - - - - - - -
07/09:00am 18.7 SSW 7 11 1018.1 - 0.0 - - - - - - -
07/08:30am 18.4 SSW 9 11 1017.6 - 0.0 - - - - - - -
07/08:00am 18.0 SSW 7 9 1017.1 - 0.0 - - - - - - -
07/07:30am 17.7 S 7 10 1016.9 - 0.0 - - - - - - -
07/07:00am 17.5 S 7 9 1016.8 - 0.0 - - - - - - -
07/06:30am 17.3 SSW 9 12 1016.6 - 0.0 - - - - - - -
07/06:00am 17.3 SSW 6 9 1016.3 - 0.0 - - - - - - -
07/05:30am 17.1 SSW 6 11 1016.1 - 0.0 - - - - - - -
07/05:00am 17.3 SSW 6 10 1016.0 - 0.0 - - - - - - -
07/04:30am 17.2 SW 5 7 1015.7 - 0.0 - - - - - - -
07/04:00am 17.1 WSW 5 6 1015.4 - 0.0 - - - - - - -
07/03:30am 14.8 CALM 0 0 1015.2 - 0.0 - - - - - - -
07/03:00am 15.4 CALM 0 0 1015.4 - 0.0 - - - - - - -
07/02:30am 15.0 CALM 0 0 1015.6 - 0.0 - - - - - - -
07/02:00am 14.9 CALM 0 0 1015.7 - 0.0 - - - - - - -
07/01:30am 15.4 CALM 0 0 1016.2 - 0.0 - - - - - - -
07/01:00am 15.5 CALM 0 0 1016.2 - 0.0 - - - - - - -
07/12:30am 15.7 NE 2 3 1016.4 - 0.0 - - - - - - -
07/12:00am 16.8 ENE 4 5 1016.4 - 0.0 - - - - - - -
 
Date/Time
EDT
Temp

°C
Wind Pressure Rain
since 9am
mm
Weather Cloud Vis
km
Sea
Height
m
Swell
Dir
 
Speed
knots
Gust
knots
hPa Trend Height
m
Period
s
Dir
06/11:30pm 17.4 ENE 5 6 1016.2 - 0.0 - - - - - - -
06/11:00pm 17.6 ENE 7 8 1016.2 - 0.0 - - - - - - -
06/10:30pm 17.8 ENE 7 9 1016.3 - 0.0 - - - - - - -
06/10:00pm 17.8 E 6 8 1016.2 - 0.0 - - - - - - -
06/09:30pm 18.0 E 7 9 1015.7 - 0.0 - - - - - - -
06/09:00pm 18.2 E 7 9 1015.5 - 0.0 - - - - - - -
06/08:30pm 18.7 E 7 9 1015.2 - 0.0 - - - - - - -
06/08:00pm 19.3 E 8 10 1015.0 - 0.0 - - - - - - -
06/07:30pm 19.9 ESE 6 9 1014.9 - 0.0 - - - - - - -
06/07:00pm 20.4 SE 7 9 1014.6 - 0.0 - - - - - - -
06/06:30pm 20.8 SE 8 10 1014.5 - 0.0 - - - - - - -
06/06:00pm 21.2 SE 8 10 1014.6 - 0.0 - - - - - - -
06/05:30pm 21.5 SSE 8 11 1014.6 - 0.0 - - - - - - -
06/05:00pm 21.5 SE 8 10 1014.9 - 0.0 - - - - - - -
06/04:30pm 22.2 SE 7 9 1015.1 - 0.0 - - - - - - -
06/04:00pm 22.0 SE 7 9 1015.3 - 0.0 - - - - - - -
06/03:30pm 22.3 SE 7 10 1015.6 - 0.0 - - - - - - -
06/03:00pm 22.4 SE 8 10 1015.7 - 0.0 - - - - - - -
06/02:30pm 21.5 SE 7 8 1015.7 - 0.0 - - - - - - -
06/02:00pm 21.8 ESE 7 9 1015.9 - 0.0 - - - - - - -
06/01:30pm 21.4 ESE 7 9 1016.0 - 0.0 - - - - - - -
06/01:00pm 21.3 ESE 7 9 1016.3 - 0.0 - - - - - - -
06/12:30pm 20.9 SE 7 9 1016.7 - 0.0 - - - - - - -
06/12:00pm 20.9 SE 7 9 1016.8 - 0.0 - - - - - - -
06/11:30am 20.5 ESE 7 9 1017.0 - 0.0 - - - - - - -
06/11:00am 20.2 E 7 9 1016.8 - 0.0 - - - - - - -
06/10:30am 19.7 ENE 10 12 1016.7 - 0.0 - - - - - - -

Other Formats:

Comma delimited format used in spreadsheet applications
http://www.bom.gov.au/fwo/IDV60701/IDV60701.94826.axf

JavaScript Object Notation format (JSON) in row-major order
http://www.bom.gov.au/fwo/IDV60701/IDV60701.94826.json